Weather observations for the past three days for
Front Royal-warren County Airport
Metric (Imperial)
Date Time (edt) Wind (kph) Vis. (km) Weather Sky Cond. Temperature (ºC) Relative Humidity Wind Chill (°C) Heat Index (°C) Pressure Precipitation (cm)
Air Dwpt 6 hour altimeter (cm) sea level (mb) 1 hr 3 hr 6 hr
Max. Min.
02 19:35 Calm 16.09 Partly Cloudy SCT070 SCT100 0 0 0% 76.3 0.0
02 19:15 Calm 16.09 Partly Cloudy SCT070 SCT090 SCT110 25 22.7 87% 26 76.28 0.0
02 18:55 Calm 16.09 Mostly Cloudy SCT070 BKN100 25.7 22.7 84% 27 76.3 0.0
02 18:35 Calm 16.09 Partly Cloudy SCT080 24.7 22 85% 25 76.33 0.0
02 18:15 Calm 16.09 Partly Cloudy SCT080 SCT090 25 22 83% 26 76.3 0.0
02 17:55 Calm 16.09 Mostly Cloudy BKN070 BKN085 0 0 0% 76.28 0.0
02 17:35 NE 6 16.09 Mostly Cloudy BKN070 BKN080 26.6 21.9 75% 29 76.3 0.0
02 17:15 Calm 16.09 Partly Cloudy SCT080 26.6 21.8 75% 29 76.33 0.0
02 16:55 Calm 16.09 Fair CLR 26.5 22.2 77% 28 76.33 0.0 1.12
02 16:35 E 6 16.09 Fair CLR 0 0 0% 76.33 0.0
02 15:55 E 9 16.09 Partly Cloudy SCT065 SCT070 SCT085 26.3 22.9 82% 28 76.38 0.0 0.1
02 15:35 E 11 16.09 Partly Cloudy SCT065 SCT085 0 0 0% 76.4 0.0 0.1
02 15:15 E 9 16.09 Light Rain SCT017 BKN042 OVC070 0 0 0% 76.38 0.0 0.1
02 14:55 NE 13 2.82 Heavy Rain SCT016 BKN031 OVC055 23.6 22.5 94% 76.35 0.0 0.94
02 14:35 NE 19 G 37 11.27 Heavy Rain BKN050 BKN070 OVC085 0 0 0% 76.33 0.0 0.08
02 14:15 S 6 16.09 Mostly Cloudy SCT050 SCT060 BKN075 34.4 23 51% 40 76.28 0.0
02 13:55 S 7 16.09 Overcast BKN060 BKN065 OVC085 35.2 23 49% 41 76.28 0.0
02 13:35 SE 6 16.09 Overcast BKN060 OVC075 34.1 22.6 51% 39 76.33 0.0
02 13:15 S 6 16.09 Mostly Cloudy BKN060 0 0 0% 76.35 0.0
02 12:55 Calm 16.09 Partly Cloudy SCT060 0 0 0% 76.38 0.0
02 11:55 S 6 16.09 Fair CLR 33.1 22.3 53% 37 76.38 0.0
02 11:35 S 7 16.09 Fair CLR 32.7 22.9 56% 38 76.38 0.0
02 11:15 SE 7 16.09 Fair CLR 32.1 23 59% 37 76.38 0.0
02 10:55 SE 7 16.09 Fair CLR 31.5 22.9 60% 36 76.38 0.0
02 10:35 S 6 16.09 Fair CLR 30.8 22.7 62% 35 76.38 0.0
02 10:15 SW 6 16.09 Fair CLR 29.6 21.7 63% 33 76.38 0.0
02 09:55 S 6 16.09 Fair CLR 28.6 21.8 67% 31 76.4 0.0
02 09:35 SW 7 16.09 Fair CLR 27.7 21.5 69% 30 76.4 0.0
02 09:15 S 9 16.09 Fair CLR 27.2 21.5 71% 29 76.4 0.0
02 08:55 S 7 16.09 Fair CLR 26.2 21.6 76% 28 76.4 0.0
02 08:35 S 7 16.09 Fair CLR 25.1 21.2 79% 26 76.38 0.0
02 08:15 Calm 16.09 Fair CLR 0 0 0% 76.4 0.0
02 07:55 NE 6 16.09 Fair CLR 23.5 21.1 86% 76.4 0.0
02 07:35 Calm 16.09 Fair CLR 0 0 0% 76.38 0.0
02 07:15 Calm 16.09 Fair CLR 0 0 0% 76.38 0.0
02 06:35 Calm 16.09 Fair CLR 0 0 0% 76.38 0.0
02 06:15 Calm 16.09 Partly Cloudy SCT100 22 20.6 92% 76.38 0.0
02 05:55 S 7 16.09 Fair CLR 0 0 0% 76.35 0.0
02 05:35 Calm 16.09 Fair CLR 0 0 0% 76.35 0.0
02 05:15 Calm 16.09 Fair CLR 22.5 20.7 90% 76.35 0.0
02 04:55 S 6 16.09 Fair CLR 22.9 20.7 87% 76.35 0.0
02 04:35 S 6 16.09 Fair CLR 23.9 20.5 81% 24 76.35 0.0
02 04:15 SW 6 16.09 Fair CLR 24.5 20.5 78% 25 76.35 0.0
02 03:55 SW 6 16.09 Partly Cloudy SCT120 24 20.5 81% 24 76.33 0.0
02 03:35 S 6 16.09 Partly Cloudy SCT120 23.7 20.7 83% 76.33 0.0
02 03:15 S 6 16.09 Partly Cloudy SCT120 23.2 21 88% 76.3 0.0
02 02:55 S 6 16.09 Fair CLR 23.3 21.4 89% 76.3 0.0
02 02:35 S 7 16.09 Fair CLR 23.4 21.5 89% 76.3 0.0
02 02:15 Calm 16.09 Fair CLR 23.9 21.1 84% 24 76.33 0.0
02 01:55 SW 6 16.09 Fair CLR 0 0 30 23.1 0% 76.35 0.0
02 01:35 Calm 16.09 Partly Cloudy SCT055 0 0 0% 76.35 0.0
02 01:15 Calm 16.09 Partly Cloudy SCT055 23.4 21 86% 76.35 0.0
02 00:55 Calm 16.09 Fair CLR 23.6 20.6 83% 76.35 0.0
02 00:35 Calm 16.09 Fair CLR 23.8 20.9 84% 76.33 0.0
02 00:15 Calm 16.09 Fair CLR 24 20.7 82% 24 76.3 0.0
01 23:55 Calm 16.09 Fair CLR 25 20.3 75% 26 76.25 0.0
01 23:35 Calm 16.09 Fair CLR 0 0 0% 76.25 0.0
01 23:15 Calm 16.09 Fair CLR 25.8 20.3 72% 27 76.25 0.0
01 22:55 S 6 16.09 Fair CLR 26.1 20.6 72% 28 76.23 0.0
01 22:35 W 6 16.09 Fair CLR 28 19.4 60% 29 76.23 0.0
01 22:15 W 6 16.09 Fair CLR 0 0 0% 76.25 0.0
01 21:55 W 7 16.09 Fair CLR 28.6 19.4 58% 30 76.25 0.0
01 21:35 W 7 16.09 Fair CLR 29.2 19.2 55% 31 76.23 0.0
01 21:15 W 11 16.09 Fair CLR 29.9 19.3 53% 31 76.2 0.0
01 20:55 W 11 16.09 Fair CLR 29 19.7 57% 31 76.2 0.0
01 20:35 W 7 16.09 Fair CLR 28.8 19.8 58% 30 76.17 0.0
01 20:15 W 7 16.09 Fair CLR 29.7 19.5 54% 31 76.15 0.0
01 19:55 W 11 16.09 Fair CLR 0 0 0% 76.15 0.0
01 19:35 W 17 16.09 Fair CLR 0 0 0% 76.12 0.0
01 18:35 W 7 16.09 Fair CLR 0 0 0% 76.15 0.0
01 18:15 Calm 16.09 Fair CLR 0 0 0% 76.15 0.0
01 17:55 Calm 16.09 Fair CLR 33.5 20.8 47% 37 76.15 0.0
01 17:35 W 13 16.09 Partly Cloudy SCT065 0 0 0% 76.15 0.0
01 17:15 NW 13 16.09 Partly Cloudy SCT065 33.6 20.4 46% 36 76.15 0.0
01 16:55 W 22 16.09 Mostly Cloudy BKN065 0 0 0% 76.15 0.0
01 16:35 W 7 16.09 Mostly Cloudy BKN065 BKN075 0 0 0% 76.15 0.0
01 16:15 SW 7 G 15 16.09 Overcast OVC070 0 0 0% 76.15 0.0
01 15:15 SW 7 16.09 Partly Cloudy SCT100 0 0 0% 76.2 0.0
01 14:55 SW 6 16.09 Mostly Cloudy BKN060 BKN100 0 0 0% 76.23 0.0
01 14:35 W 13 16.09 Mostly Cloudy BKN060 34.1 21.2 47% 38 76.25 0.0
01 14:15 W 19 16.09 Fair CLR 34.8 21.2 45% 38 76.25 0.0
01 13:55 NW 13 G 26 16.09 Fair CLR 0 0 0% 76.25 0.0
01 13:35 W 11 G 26 16.09 Partly Cloudy SCT120 34.5 21 45% 38 76.25 0.0
01 13:15 W 11 16.09 Partly Cloudy SCT050 SCT120 0 0 0% 76.25 0.0
01 12:55 SW 9 16.09 Partly Cloudy SCT050 SCT120 31.8 23 60% 37 76.25 0.0
01 12:35 S 13 16.09 Partly Cloudy SCT050 0 0 0% 76.28 0.0
01 12:15 S 7 16.09 Partly Cloudy SCT048 30.3 22.5 63% 34 76.3 0.0
01 11:55 S 6 16.09 Partly Cloudy SCT046 29.8 22.4 65% 33 76.3 0.0
01 11:35 S 13 16.09 Partly Cloudy SCT046 29.8 22 63% 33 76.3 0.0
01 11:15 S 7 16.09 Fair CLR 31.1 22.4 60% 35 76.33 0.0
01 10:55 S 13 16.09 Fair CLR 30 22.1 63% 33 76.3 0.0
01 10:35 S 6 16.09 Fair CLR 29.7 22.4 65% 33 76.35 0.0
01 10:15 S 9 16.09 Fair CLR 28.5 22 68% 31 76.35 0.0
01 09:55 S 13 16.09 Fair CLR 26.3 21.5 75% 28 76.35 0.0
01 09:35 SW 9 16.09 Fair CLR 0 0 0% 76.35 0.0
01 09:15 S 13 16.09 Fair CLR 27 21.6 72% 29 76.35 0.0
01 08:55 S 9 16.09 Fair CLR 0 0 0% 76.38 0.0
01 08:35 S 11 16.09 Fair CLR 0 0 0% 76.38 0.0
01 08:15 S 7 16.09 Fair CLR 0 0 0% 76.38 0.0
01 07:55 S 7 16.09 Fair CLR 0 0 0% 76.38 0.0
01 07:35 S 9 16.09 Fair CLR 0 0 0% 76.35 0.0
01 07:15 S 9 16.09 Fair CLR 0 0 0% 76.33 0.0
01 06:55 S 7 16.09 Fair CLR 0 0 0% 76.33 0.0
01 06:35 S 7 16.09 Fair CLR 0 0 0% 76.33 0.0
01 06:15 S 7 16.09 Fair CLR 0 0 0% 76.33 0.0
01 05:55 S 9 16.09 Fair CLR 0 0 0% 76.33 0.0
01 05:35 S 9 16.09 Fair CLR 0 0 0% 76.33 0.0
01 05:15 S 7 16.09 Fair CLR 0 0 0% 76.33 0.0
01 04:55 S 6 16.09 Fair CLR 0 0 0% 76.3 0.0
01 04:35 S 6 16.09 Fair CLR 0 0 0% 76.33 0.0
01 04:15 S 7 16.09 Fair CLR 0 0 0% 76.33 0.0
01 03:35 S 7 16.09 Fair CLR 0 0 0% 76.33 0.0
01 03:15 S 7 16.09 Fair CLR 0 0 0% 76.33 0.0
01 02:55 S 7 16.09 Fair CLR 0 0 0% 76.35 0.0
01 02:35 S 7 16.09 Fair CLR 0 0 0% 76.35 0.0
01 02:15 S 6 16.09 Fair CLR 0 0 0% 76.35 0.0
01 01:55 S 6 16.09 Fair CLR 0 0 0% 76.35 0.0
01 01:35 S 6 16.09 Fair CLR 0 0 0% 76.38 0.0
01 01:15 S 6 16.09 Partly Cloudy SCT120 0 0 0% 76.38 0.0
01 00:55 S 7 16.09 Mostly Cloudy BKN120 0 0 0% 76.4 0.0
01 00:35 S 6 16.09 Mostly Cloudy BKN120 0 0 0% 76.4 0.0
01 00:15 Calm 16.09 Overcast OVC110 0 0 0% 76.4 0.0
31 23:55 S 7 16.09 Overcast BKN100 OVC120 0 0 0% 76.43 0.0
31 23:35 S 7 16.09 Overcast OVC090 0 0 0% 76.43 0.0
31 23:15 S 6 16.09 Overcast OVC100 0 0 0% 76.43 0.0
31 22:55 Calm 16.09 Overcast BKN090 OVC110 0 0 0% 76.43 0.0
31 22:35 Calm 16.09 Overcast OVC090 0 0 0% 76.43 0.0
31 22:15 Calm 16.09 Overcast OVC110 0 0 0% 76.43 0.0
31 21:55 Calm 16.09 Partly Cloudy SCT110 0 0 0% 76.43 0.0
31 21:35 S 6 16.09 Fair CLR 0 0 0% 76.4 0.0
31 21:15 Calm 16.09 Fair CLR 0 0 0% 76.38 0.0
31 20:35 S 6 16.09 Partly Cloudy SCT080 0 0 0% 76.38 0.0
31 20:15 S 6 16.09 Fair CLR 0 0 0% 76.35 0.0
31 19:55 Calm 16.09 Partly Cloudy SCT110 25.5 22.8 85% 27 76.35 0.0
31 19:35 Calm 16.09 Overcast OVC110 0 0 0% 76.38 0.0
31 18:55 Calm 16.09 Mostly Cloudy BKN100 27.6 22.5 74% 30 76.38 0.0
31 18:35 Calm 16.09 Partly Cloudy SCT120 28 22.7 73% 31 76.38 0.0
31 18:15 Calm 16.09 Partly Cloudy SCT120 28.1 23 74% 31 76.4 0.0
31 17:55 Calm 16.09 Fair CLR 28.5 22.6 70% 32 76.4 0.0
31 17:35 Calm 16.09 Fair CLR 0 0 0% 76.4 0.0
31 16:55 Calm 16.09 Mostly Cloudy BKN120 28.6 21.7 66% 31 76.43 0.0
31 16:35 Calm 16.09 Partly Cloudy SCT120 28.3 21.6 67% 31 76.43 0.0
31 16:15 Calm 16.09 Fair CLR 0 0 0% 76.43 0.0
31 15:55 Calm 16.09 Fair CLR 0 0 0% 76.43 0.0
31 15:35 Calm 16.09 Fair CLR 0 0 0% 76.43 0.0
31 15:15 Calm 16.09 Partly Cloudy SCT120 0 0 0% 76.45 0.0
31 14:55 Calm 16.09 Mostly Cloudy BKN120 0 0 0% 76.48 0.0
31 14:35 Calm 16.09 Partly Cloudy SCT120 0 0 0% 76.48 0.0
31 14:15 Calm 16.09 Fair CLR 0 0 0% 76.48 0.0
31 13:55 Calm 16.09 Fair CLR 28.5 21.3 65% 31 76.48 0.0
31 13:15 W 6 16.09 Partly Cloudy SCT120 29 21.6 64% 32 76.48 0.0
31 12:55 S 6 16.09 Partly Cloudy SCT028 SCT120 0 0 0% 76.5 0.0
31 12:35 Calm 16.09 Mostly Cloudy SCT028 BKN120 0 0 0% 76.5 0.0
31 11:55 Calm 16.09 Fair CLR 0 0 0% 76.56 0.0
31 11:35 NW 6 16.09 Fair CLR 0 0 0% 76.56 0.0
31 11:15 NW 6 16.09 Fair CLR 0 0 0% 76.56 0.0
31 10:55 Calm 16.09 Fair CLR 0 0 0% 76.56 0.0
31 10:35 Calm 16.09 Partly Cloudy SCT120 0 0 0% 76.53 0.0
31 10:15 Calm 16.09 Mostly Cloudy BKN110 0 0 0% 76.53 0.0
31 09:35 Calm 16.09 Fair CLR 0 0 0% 76.56 0.0
31 09:15 Calm 16.09 Partly Cloudy SCT110 0 0 0% 76.56 0.0
31 08:55 Calm 16.09 Mostly Cloudy BKN110 0 0 0% 76.56 0.0
31 08:35 Calm 16.09 Fair CLR 0 0 0% 76.56 0.0
31 08:15 Calm 16.09 Fair CLR 0 0 0% 76.53 0.0
31 06:55 S 6 8.05 Fair with Haze CLR 0 0 0% 76.5 0.0
31 05:35 Calm 11.27 Fair CLR 0 0 0% 76.45 0.0
31 04:35 S 7 16.09 Fair CLR 0 0 0% 76.43 0.0
31 04:15 S 9 16.09 Fair CLR 0 0 0% 76.43 0.0
31 03:35 Calm 11.27 Fair CLR 0 0 0% 76.43 0.0
31 03:15 S 6 11.27 Fair CLR 0 0 0% 76.4 0.0
31 02:55 Calm 16.09 Fair CLR 0 0 0% 76.43 0.0
31 02:35 S 6 11.27 Fair CLR 0 0 0% 76.43 0.0
31 02:15 Calm 11.27 Fair CLR 0 0 0% 76.43 0.0
31 01:55 Calm 16.09 Fair CLR 0 0 0% 76.43 0.0
31 01:35 Calm 16.09 Fair CLR 0 0 0% 76.43 0.0
31 01:15 Calm 16.09 Fair CLR 0 0 0% 76.45 0.0
31 00:55 Calm 16.09 Fair CLR 0 0 0% 76.45 0.0
31 00:35 Calm 16.09 Fair CLR 0 0 0% 76.48 0.0
30 23:55 Calm 16.09 Fair CLR 0 0 0% 76.48 0.0
30 23:35 Calm 16.09 Fair CLR 0 0 0% 76.48 0.0
30 23:15 Calm 16.09 Fair CLR 22.3 20.9 92% 76.48 0.0
30 22:55 Calm 16.09 Fair CLR 0 0 0% 76.48 0.0
30 22:15 S 6 16.09 Fair CLR 23.6 20.8 84% 76.48 0.0
30 21:55 S 7 16.09 Partly Cloudy SCT065 0 0 0% 76.48 0.0
30 21:35 S 6 16.09 Partly Cloudy SCT065 23.7 20.6 83% 76.48 0.0
30 21:15 S 7 16.09 Partly Cloudy SCT065 23.7 20.2 81% 76.48 0.0
30 20:55 S 6 16.09 Partly Cloudy SCT065 SCT085 SCT110 23.6 20 80% 76.48 0.0
30 20:35 Calm 16.09 Partly Cloudy SCT100 24.6 19.7 74% 25 76.43 0.0
30 20:15 Calm 16.09 Partly Cloudy SCT090 24.4 19.8 76% 25 76.4 0.0
30 19:55 S 6 16.09 Fair CLR 25.2 19.9 73% 26 76.4 0.0
Date Time (edt) Wind (kph) Vis. (km) Weather Sky Cond. Air Dwpt Max. Min. Relative Humidity Wind Chill (°C) Heat Index (°C) altimeter (cm) sea level (mb) 1 hr 3 hr 6 hr
6 hour
Temperature (ºC) Pressure Precipitation (cm)